Time;durP1;ratioP1;P1;durP2;ratioP2;P2;SDS_P1;SDS_P2;PMS_P1;PMS_P2;Temp;Humidity;BMP_temperature;BMP_pressure;BME280_temperature;BME280_humidity;BME280_pressure;Samples;Min_cycle;Max_cycle;Signal;HPM_P1;HPM_P2
2023/04/15 00:00:16;;;;;;;8.77;3.60;;;8.20;99.90;;;;;;4772948;30;20062;-83
2023/04/15 00:02:43;;;;;;;9.18;3.53;;;8.20;99.90;;;;;;4773063;30;20047;-84
2023/04/15 00:05:09;;;;;;;11.60;3.70;;;8.10;99.90;;;;;;4758403;30;20500;-84
2023/04/15 00:07:35;;;;;;;8.90;3.43;;;8.10;99.90;;;;;;4772979;30;20168;-83
2023/04/15 00:10:01;;;;;;;8.48;3.83;;;8.10;99.90;;;;;;4758189;30;20301;-83
2023/04/15 00:12:27;;;;;;;8.50;3.60;;;8.00;99.90;;;;;;4772400;30;20519;-83
2023/04/15 00:14:53;;;;;;;8.98;3.92;;;8.00;99.90;;;;;;4773493;30;20113;-83
2023/04/15 00:17:19;;;;;;;11.47;4.03;;;8.00;99.90;;;;;;4743358;30;20091;-83
2023/04/15 00:19:45;;;;;;;11.23;4.18;;;7.90;99.90;;;;;;4773544;30;20097;-84
2023/04/15 00:22:11;;;;;;;13.50;6.57;;;7.80;99.90;;;;;;4758067;30;20082;-83
2023/04/15 00:24:37;;;;;;;11.23;4.45;;;7.80;99.90;;;;;;4772813;30;20105;-83
2023/04/15 00:27:04;;;;;;;12.40;4.85;;;7.80;99.90;;;;;;4788520;30;20055;-83
2023/04/15 00:29:30;;;;;;;10.20;4.68;;;7.70;99.90;;;;;;4788972;30;20107;-83
2023/04/15 00:31:56;;;;;;;7.47;4.40;;;7.70;99.90;;;;;;4758122;30;20062;-83
2023/04/15 00:34:22;;;;;;;8.27;4.43;;;7.70;99.90;;;;;;4772726;30;20488;-83
2023/04/15 00:36:49;;;;;;;8.77;4.50;;;7.60;99.90;;;;;;4757736;30;20063;-84
2023/04/15 00:39:17;;;;;;;10.52;5.00;;;7.60;99.90;;;;;;4772590;30;20055;-83
2023/04/15 00:41:44;;;;;;;10.82;4.70;;;7.50;99.90;;;;;;4773356;30;20083;-83
2023/04/15 00:44:10;;;;;;;10.30;4.53;;;7.50;99.90;;;;;;4757819;30;20094;-83
2023/04/15 00:46:38;;;;;;;12.47;4.60;;;7.40;99.90;;;;;;4743859;30;20102;-83
2023/04/15 00:49:05;;;;;;;12.50;5.15;;;7.50;99.90;;;;;;4757430;30;20055;-83
2023/04/15 00:51:32;;;;;;;11.20;5.78;;;7.40;99.90;;;;;;4757864;30;20138;-83
2023/04/15 00:54:03;;;;;;;12.13;5.43;;;7.30;99.90;;;;;;4772626;30;20059;-83
2023/04/15 00:56:29;;;;;;;9.80;4.82;;;7.30;99.90;;;;;;4757993;30;20402;-83
2023/04/15 00:58:56;;;;;;;14.45;5.40;;;7.30;99.90;;;;;;4772392;30;20051;-83
2023/04/15 01:01:24;;;;;;;12.48;6.07;;;7.20;99.90;;;;;;4757902;30;20062;-83
2023/04/15 01:03:50;;;;;;;14.05;5.57;;;7.20;99.90;;;;;;4772372;30;20389;-83
2023/04/15 01:06:16;;;;;;;10.85;5.38;;;7.20;99.90;;;;;;4757639;30;20520;-83
2023/04/15 01:08:44;;;;;;;13.07;5.43;;;7.20;99.90;;;;;;4772098;30;20058;-83
2023/04/15 01:11:11;;;;;;;16.30;6.10;;;7.10;99.90;;;;;;4758441;30;20366;-83
2023/04/15 01:13:37;;;;;;;11.45;6.07;;;7.00;99.90;;;;;;4772335;30;20055;-83
2023/04/15 01:16:03;;;;;;;10.77;5.90;;;7.00;99.90;;;;;;4757406;30;20111;-83
2023/04/15 01:18:30;;;;;;;13.33;6.17;;;7.00;99.90;;;;;;4757390;30;20047;-83
2023/04/15 01:20:56;;;;;;;13.48;6.57;;;6.90;99.90;;;;;;4757634;30;20063;-83
2023/04/15 01:23:22;;;;;;;11.17;6.33;;;6.90;99.90;;;;;;4742861;30;20171;-83
2023/04/15 01:25:49;;;;;;;12.27;6.37;;;6.90;99.90;;;;;;4788065;30;20047;-84
2023/04/15 01:28:15;;;;;;;14.57;6.90;;;6.90;99.90;;;;;;4759875;30;20308;-84
2023/04/15 01:30:42;;;;;;;11.15;6.18;;;6.80;99.90;;;;;;4775571;30;20047;-83
2023/04/15 01:33:08;;;;;;;10.10;5.65;;;6.80;99.90;;;;;;4746259;30;20447;-83
2023/04/15 01:35:33;;;;;;;10.77;6.40;;;6.80;99.90;;;;;;4775819;30;20064;-83
2023/04/15 01:38:10;;;;;;;11.00;6.70;;;6.80;99.90;;;;;;4760936;30;20147;-84
2023/04/15 01:40:35;;;;;;;16.77;6.80;;;6.70;99.90;;;;;;4776217;30;20138;-83
2023/04/15 01:43:02;;;;;;;12.13;6.07;;;6.70;99.90;;;;;;4775464;30;20130;-83
2023/04/15 01:45:28;;;;;;;12.38;6.88;;;6.60;99.90;;;;;;4775578;30;20167;-83
2023/04/15 01:47:54;;;;;;;11.38;6.43;;;6.60;99.90;;;;;;4775080;30;20134;-85
2023/04/15 01:50:20;;;;;;;11.95;6.50;;;6.60;99.90;;;;;;4775260;30;20047;-83
2023/04/15 01:52:47;;;;;;;13.90;7.13;;;6.60;99.90;;;;;;4760049;30;20116;-83
2023/04/15 01:55:13;;;;;;;11.93;7.05;;;6.60;99.90;;;;;;4775275;30;20113;-83
2023/04/15 01:57:39;;;;;;;15.73;7.47;;;6.50;99.90;;;;;;4760366;30;20055;-83
2023/04/15 02:00:06;;;;;;;11.65;7.20;;;6.50;99.90;;;;;;4775915;30;20054;-83
2023/04/15 02:02:33;;;;;;;11.90;7.25;;;6.50;99.90;;;;;;4745640;30;20058;-83
2023/04/15 02:04:58;;;;;;;15.20;7.25;;;6.50;99.90;;;;;;4760669;30;20048;-84
2023/04/15 02:07:25;;;;;;;12.83;7.67;;;6.50;99.90;;;;;;4774931;30;20055;-83
2023/04/15 02:09:50;;;;;;;13.35;7.80;;;6.50;99.90;;;;;;4760570;30;20413;-83
2023/04/15 02:12:16;;;;;;;15.50;7.83;;;6.40;99.90;;;;;;4759585;30;20058;-83
2023/04/15 02:14:42;;;;;;;14.53;8.00;;;6.40;99.90;;;;;;4775672;30;20058;-83
2023/04/15 02:17:07;;;;;;;11.53;7.47;;;6.40;99.90;;;;;;4760870;30;20480;-84
2023/04/15 02:19:34;;;;;;;11.57;7.93;;;6.30;99.90;;;;;;4760279;30;20058;-83
2023/04/15 02:22:03;;;;;;;12.00;7.82;;;6.40;99.90;;;;;;4759973;30;20134;-83
2023/04/15 02:24:30;;;;;;;12.80;7.93;;;6.40;99.90;;;;;;4790592;30;20081;-83
2023/04/15 02:26:56;;;;;;;17.25;8.52;;;6.40;99.90;;;;;;4759957;30;20358;-83
2023/04/15 02:29:22;;;;;;;13.55;8.13;;;6.30;99.90;;;;;;4759323;30;20063;-83
2023/04/15 02:31:48;;;;;;;17.02;8.38;;;6.30;99.90;;;;;;4760073;30;20055;-83
2023/04/15 02:34:14;;;;;;;12.63;8.38;;;6.30;99.90;;;;;;4759496;30;20577;-83
2023/04/15 02:36:40;;;;;;;18.77;8.13;;;6.30;99.90;;;;;;4774591;30;20093;-84
2023/04/15 02:39:06;;;;;;;15.07;8.43;;;6.30;99.90;;;;;;4758335;30;20067;-84
2023/04/15 02:41:32;;;;;;;13.70;8.03;;;6.30;99.90;;;;;;4759628;30;20378;-83
2023/04/15 02:43:58;;;;;;;14.38;8.38;;;6.30;99.90;;;;;;4790739;30;20054;-83
2023/04/15 02:46:23;;;;;;;12.43;8.50;;;6.30;99.90;;;;;;4774666;30;20047;-83
2023/04/15 02:48:49;;;;;;;13.03;8.23;;;6.20;99.90;;;;;;4759391;30;20401;-83
2023/04/15 02:51:21;;;;;;;14.15;8.60;;;6.20;99.90;;;;;;4774257;30;20058;-83
2023/04/15 02:53:48;;;;;;;13.95;8.80;;;6.20;99.90;;;;;;4773623;30;20070;-83
2023/04/15 02:56:14;;;;;;;15.52;7.82;;;6.20;99.90;;;;;;4790108;30;20071;-83
2023/04/15 02:58:41;;;;;;;14.48;9.88;;;6.20;99.90;;;;;;4759424;30;20054;-83
2023/04/15 03:01:07;;;;;;;14.32;8.50;;;6.20;99.90;;;;;;4758706;30;20104;-84
2023/04/15 03:03:33;;;;;;;16.50;8.68;;;6.20;99.90;;;;;;4745327;30;20047;-83
2023/04/15 03:06:00;;;;;;;15.73;9.02;;;6.10;99.90;;;;;;4773591;30;20100;-83
2023/04/15 03:08:26;;;;;;;16.27;8.80;;;6.10;99.90;;;;;;4759779;30;20051;-83
2023/04/15 03:10:53;;;;;;;11.43;8.50;;;6.10;99.90;;;;;;4759961;30;20059;-83
2023/04/15 03:13:20;;;;;;;13.45;8.90;;;6.10;99.90;;;;;;4758938;30;20055;-83
2023/04/15 03:15:46;;;;;;;15.30;8.43;;;6.10;99.90;;;;;;4774100;30;20120;-83
2023/04/15 03:18:12;;;;;;;15.15;9.10;;;6.10;99.90;;;;;;4759263;30;20090;-84
2023/04/15 03:20:38;;;;;;;16.63;9.97;;;6.00;99.90;;;;;;4759242;30;20095;-83
2023/04/15 03:23:04;;;;;;;13.43;8.73;;;6.00;99.90;;;;;;4773751;30;20142;-83
2023/04/15 03:25:29;;;;;;;14.43;8.53;;;6.00;99.90;;;;;;4759668;30;20568;-83
2023/04/15 03:27:55;;;;;;;14.40;8.43;;;6.00;99.90;;;;;;4773562;30;20366;-83
2023/04/15 03:30:21;;;;;;;13.60;8.80;;;6.00;99.90;;;;;;4758864;30;20044;-84
2023/04/15 03:32:47;;;;;;;14.60;8.93;;;6.00;99.90;;;;;;4758824;30;20141;-83
2023/04/15 03:35:12;;;;;;;13.80;9.80;;;6.00;99.90;;;;;;4759043;30;20107;-84
2023/04/15 03:37:38;;;;;;;15.63;8.93;;;5.90;99.90;;;;;;4758623;30;20062;-84
2023/04/15 03:40:04;;;;;;;14.17;9.10;;;5.90;99.90;;;;;;4774226;30;20051;-84
2023/04/15 03:42:30;;;;;;;17.08;9.90;;;5.90;99.90;;;;;;4759334;30;20401;-84
2023/04/15 03:44:56;;;;;;;15.87;10.50;;;5.90;99.90;;;;;;4789313;29;20119;-84
2023/04/15 03:47:22;;;;;;;15.87;10.37;;;5.90;99.90;;;;;;4789062;30;20112;-83
2023/04/15 03:49:47;;;;;;;15.63;10.23;;;5.90;99.90;;;;;;4772547;30;20055;-83
2023/04/15 03:52:13;;;;;;;16.07;10.20;;;5.80;99.90;;;;;;4773113;30;20148;-84
2023/04/15 03:54:39;;;;;;;14.47;10.20;;;5.90;99.90;;;;;;4773147;30;20059;-83
2023/04/15 03:57:05;;;;;;;15.13;9.73;;;5.90;99.90;;;;;;4772971;30;20145;-83
2023/04/15 03:59:31;;;;;;;14.35;9.90;;;5.80;99.90;;;;;;4773101;30;20151;-84
2023/04/15 04:01:56;;;;;;;14.37;10.13;;;5.80;99.90;;;;;;4773882;30;20090;-84
2023/04/15 04:04:22;;;;;;;17.83;10.97;;;5.70;99.90;;;;;;4758285;30;20047;-83
2023/04/15 04:06:48;;;;;;;15.97;11.20;;;5.70;99.90;;;;;;4758364;30;20051;-84
2023/04/15 04:09:14;;;;;;;16.20;11.27;;;5.70;99.90;;;;;;4773195;30;20043;-84
2023/04/15 04:11:40;;;;;;;15.80;10.20;;;5.70;99.90;;;;;;4773229;30;20438;-83
2023/04/15 04:14:05;;;;;;;20.07;11.07;;;5.70;99.90;;;;;;4772910;30;20061;-84
2023/04/15 04:16:31;;;;;;;14.37;10.27;;;5.70;99.90;;;;;;4757865;30;20570;-84
2023/04/15 04:18:57;;;;;;;18.80;11.60;;;5.70;99.90;;;;;;4743721;30;20051;-84
2023/04/15 04:21:22;;;;;;;15.73;11.13;;;5.70;99.90;;;;;;4758128;30;20057;-84
2023/04/15 04:23:48;;;;;;;16.30;11.40;;;5.70;99.90;;;;;;4772825;30;20051;-84
2023/04/15 04:26:14;;;;;;;16.00;11.37;;;5.70;99.90;;;;;;4757781;30;20051;-84
2023/04/15 04:28:40;;;;;;;19.07;12.43;;;5.70;99.90;;;;;;4758027;30;20138;-84
2023/04/15 04:31:06;;;;;;;17.77;12.07;;;5.60;99.90;;;;;;4772999;30;20455;-84
2023/04/15 04:33:32;;;;;;;16.85;11.50;;;5.60;99.90;;;;;;4758575;30;20090;-84
2023/04/15 04:35:58;;;;;;;19.70;11.98;;;5.60;99.90;;;;;;4772400;30;20047;-84
2023/04/15 04:38:24;;;;;;;18.57;12.40;;;5.60;99.90;;;;;;4772619;30;20054;-84
2023/04/15 04:40:50;;;;;;;17.13;11.93;;;5.60;99.90;;;;;;4772883;30;20404;-84
2023/04/15 04:43:15;;;;;;;17.07;13.00;;;5.60;99.90;;;;;;4743141;30;20521;-85
2023/04/15 04:45:41;;;;;;;18.87;11.40;;;5.60;99.90;;;;;;4757974;30;20050;-84
2023/04/15 04:48:09;;;;;;;17.10;12.03;;;5.60;99.90;;;;;;4757652;30;20055;-84
2023/04/15 04:50:35;;;;;;;15.80;11.07;;;5.60;99.90;;;;;;4743681;30;20408;-84
2023/04/15 04:53:01;;;;;;;18.73;12.77;;;5.60;99.90;;;;;;4757383;30;20069;-84
2023/04/15 04:55:28;;;;;;;17.77;11.27;;;5.60;99.90;;;;;;4757598;30;20059;-84
2023/04/15 04:57:53;;;;;;;18.55;12.52;;;5.60;99.90;;;;;;4757759;30;20047;-83
2023/04/15 05:00:19;;;;;;;15.50;11.97;;;5.60;99.90;;;;;;4757965;30;20055;-84
2023/04/15 05:02:45;;;;;;;16.63;12.47;;;5.60;99.90;;;;;;4759576;30;20142;-84
2023/04/15 05:05:12;;;;;;;17.90;12.23;;;5.60;99.90;;;;;;4776300;30;20404;-83
2023/04/15 05:07:38;;;;;;;17.00;11.82;;;5.60;99.90;;;;;;4775907;30;20047;-83
2023/04/15 05:10:05;;;;;;;15.73;11.75;;;5.60;99.90;;;;;;4791893;29;20134;-83
2023/04/15 05:12:31;;;;;;;15.95;11.63;;;5.60;99.90;;;;;;4761112;30;20453;-84
2023/04/15 05:14:57;;;;;;;16.90;12.00;;;5.60;99.90;;;;;;4761694;30;20086;-84
2023/04/15 05:17:22;;;;;;;17.33;12.17;;;5.60;99.90;;;;;;4775827;30;20054;-83
2023/04/15 05:19:48;;;;;;;18.30;12.23;;;5.60;99.90;;;;;;4775771;30;20055;-84
2023/04/15 05:22:14;;;;;;;18.63;12.27;;;5.70;99.90;;;;;;4760808;30;20058;-84
2023/04/15 05:24:40;;;;;;;16.33;12.13;;;5.70;99.90;;;;;;4746545;30;20051;-84
2023/04/15 05:27:07;;;;;;;19.45;12.77;;;5.70;99.90;;;;;;4775718;30;20074;-84
2023/04/15 05:29:33;;;;;;;16.20;12.75;;;5.80;99.90;;;;;;4760801;30;20054;-84
2023/04/15 05:32:00;;;;;;;16.58;12.77;;;5.90;99.90;;;;;;4775557;30;20083;-84
2023/04/15 05:34:25;;;;;;;18.40;13.40;;;6.00;99.90;;;;;;4791452;30;20051;-84
2023/04/15 05:36:51;;;;;;;20.70;11.67;;;6.10;99.90;;;;;;4775535;30;20051;-84
2023/04/15 05:39:17;;;;;;;20.27;12.10;;;6.10;99.90;;;;;;4760738;30;20051;-84
2023/04/15 05:41:43;;;;;;;21.58;12.70;;;6.20;99.90;;;;;;4761456;30;20061;-84
2023/04/15 05:44:09;;;;;;;20.10;12.27;;;6.30;99.90;;;;;;4760700;30;20171;-84
2023/04/15 05:46:35;;;;;;;16.57;11.70;;;6.30;99.90;;;;;;4761407;30;20473;-84
2023/04/15 05:49:00;;;;;;;15.43;11.40;;;6.40;99.90;;;;;;4760345;30;20055;-84
2023/04/15 05:51:26;;;;;;;16.33;11.67;;;6.50;99.90;;;;;;4775351;30;20481;-84
2023/04/15 05:53:52;;;;;;;15.63;11.50;;;6.60;99.90;;;;;;4791063;30;20098;-84
2023/04/15 05:56:19;;;;;;;16.67;10.77;;;6.70;99.90;;;;;;4775184;30;20112;-84
2023/04/15 05:58:45;;;;;;;15.80;10.77;;;6.70;99.90;;;;;;4761153;30;20439;-85
2023/04/15 06:01:11;;;;;;;15.27;10.40;;;6.90;99.90;;;;;;4760489;30;20062;-84
2023/04/15 06:03:37;;;;;;;15.40;10.05;;;7.00;99.90;;;;;;4775920;30;20062;-84
2023/04/15 06:06:03;;;;;;;13.98;9.75;;;7.10;99.90;;;;;;4745466;30;20091;-84
2023/04/15 06:08:29;;;;;;;13.77;9.90;;;7.20;99.90;;;;;;4774824;30;20082;-85
2023/04/15 06:10:55;;;;;;;12.93;9.60;;;7.50;99.90;;;;;;4745434;30;20491;-84
2023/04/15 06:13:21;;;;;;;12.17;9.00;;;8.00;99.90;;;;;;4759872;30;20055;-85
2023/04/15 06:15:46;;;;;;;11.57;9.03;;;8.40;99.90;;;;;;4760120;30;20115;-85
2023/04/15 06:18:12;;;;;;;12.93;8.47;;;8.70;99.90;;;;;;4760070;30;20490;-85
2023/04/15 06:20:38;;;;;;;13.20;9.07;;;8.70;99.90;;;;;;4760438;30;20055;-85
2023/04/15 06:23:04;;;;;;;11.43;8.43;;;8.80;99.90;;;;;;4774588;30;20051;-84
2023/04/15 06:25:29;;;;;;;14.63;9.50;;;8.80;99.90;;;;;;4759919;30;20054;-85
2023/04/15 06:27:55;;;;;;;11.83;8.33;;;8.80;99.90;;;;;;4760123;30;20058;-85
2023/04/15 06:30:21;;;;;;;13.10;8.50;;;8.80;99.90;;;;;;4745238;30;20538;-85
2023/04/15 06:32:47;;;;;;;12.30;8.77;;;8.90;99.90;;;;;;4775134;30;20068;-85
2023/04/15 06:35:13;;;;;;;13.80;8.25;;;9.00;99.90;;;;;;4774503;30;20057;-85
2023/04/15 06:37:39;;;;;;;12.67;8.93;;;8.90;99.90;;;;;;4759655;30;20051;-85
2023/04/15 06:40:05;;;;;;;11.67;8.53;;;9.00;99.90;;;;;;4759678;30;20058;-85
2023/04/15 06:42:31;;;;;;;13.83;9.70;;;9.10;99.90;;;;;;4759383;30;20056;-85
2023/04/15 06:44:57;;;;;;;11.57;8.70;;;9.40;99.90;;;;;;4759701;30;20301;-85
2023/04/15 06:47:22;;;;;;;10.83;7.90;;;9.70;99.90;;;;;;4760303;30;20305;-85
2023/04/15 06:49:48;;;;;;;14.53;8.87;;;9.70;99.90;;;;;;4760056;30;20062;-85
2023/04/15 06:52:15;;;;;;;13.90;8.73;;;9.70;99.90;;;;;;4774137;30;20142;-85
2023/04/15 06:54:41;;;;;;;13.57;8.77;;;9.70;99.90;;;;;;4759914;30;20134;-85
2023/04/15 06:57:08;;;;;;;12.97;9.47;;;9.80;99.90;;;;;;4759404;30;20404;-85
2023/04/15 06:59:34;;;;;;;11.53;8.57;;;10.00;99.90;;;;;;4744781;30;20304;-85
2023/04/15 07:02:00;;;;;;;12.13;8.27;;;10.10;99.90;;;;;;4759388;30;20309;-85
2023/04/15 07:04:26;;;;;;;11.57;7.97;;;10.40;99.90;;;;;;4774117;30;20043;-84
2023/04/15 07:06:54;;;;;;;13.07;8.63;;;10.80;99.90;;;;;;4790454;29;20350;-85
2023/04/15 07:09:21;;;;;;;13.70;9.00;;;11.20;99.90;;;;;;4759722;30;20309;-85
2023/04/15 07:11:46;;;;;;;11.13;7.53;;;11.70;99.90;;;;;;4759142;30;20307;-85
2023/04/15 07:14:12;;;;;;;10.20;7.53;;;12.00;99.90;;;;;;4774447;30;20296;-85
2023/04/15 07:16:38;;;;;;;10.37;7.20;;;12.50;99.90;;;;;;4744272;30;20366;-85
2023/04/15 07:19:04;;;;;;;10.30;7.27;;;12.70;99.90;;;;;;4759855;30;20051;-85
2023/04/15 07:21:29;;;;;;;10.30;8.20;;;12.80;99.90;;;;;;4744340;30;20086;-87
2023/04/15 07:23:55;;;;;;;9.63;7.30;;;13.00;99.90;;;;;;4773662;29;20083;-85
2023/04/15 07:26:22;;;;;;;9.53;7.47;;;13.00;99.90;;;;;;4773158;30;20061;-86
2023/04/15 07:28:48;;;;;;;11.00;7.07;;;12.80;99.90;;;;;;4744747;30;20090;-86
2023/04/15 07:31:15;;;;;;;12.27;7.10;;;12.70;99.90;;;;;;4758938;30;20627;-85
2023/04/15 07:33:41;;;;;;;10.13;7.17;;;12.60;99.90;;;;;;4759490;30;20455;-86
2023/04/15 07:36:06;;;;;;;10.80;6.83;;;12.40;99.90;;;;;;4758763;30;20387;-86
2023/04/15 07:38:32;;;;;;;9.97;6.47;;;12.20;99.90;;;;;;4773742;30;20112;-86
2023/04/15 07:40:58;;;;;;;8.57;5.60;;;12.00;99.90;;;;;;4789284;30;20559;-85
2023/04/15 07:43:24;;;;;;;10.33;6.23;;;12.00;99.90;;;;;;4773717;30;20062;-85
2023/04/15 07:45:49;;;;;;;8.70;6.47;;;12.00;99.90;;;;;;4758601;30;20450;-85
2023/04/15 07:48:15;;;;;;;10.33;5.50;;;11.80;99.90;;;;;;4758534;30;20047;-84
2023/04/15 07:50:41;;;;;;;8.90;5.10;;;11.70;99.90;;;;;;4773186;30;20407;-84
2023/04/15 07:53:08;;;;;;;8.33;4.83;;;11.60;99.90;;;;;;4772866;30;20063;-85
2023/04/15 07:55:34;;;;;;;7.87;4.90;;;11.60;99.90;;;;;;4773100;30;20301;-87
2023/04/15 07:57:59;;;;;;;6.13;4.20;;;11.60;99.90;;;;;;4758322;30;20311;-85
2023/04/15 08:00:25;;;;;;;7.97;4.20;;;11.50;99.90;;;;;;4758502;30;20168;-85
2023/04/15 08:02:52;;;;;;;8.13;3.97;;;11.50;99.90;;;;;;4758390;30;20055;-85
2023/04/15 08:05:18;;;;;;;7.47;4.00;;;11.60;99.90;;;;;;4758854;30;20296;-85
2023/04/15 08:07:44;;;;;;;7.57;4.37;;;11.70;99.90;;;;;;4772844;30;20839;-85
2023/04/15 08:10:10;;;;;;;7.77;4.10;;;11.70;99.90;;;;;;4758214;30;20298;-85
2023/04/15 08:12:36;;;;;;;6.70;4.17;;;11.70;99.90;;;;;;4772902;30;20508;-86
2023/04/15 08:15:03;;;;;;;6.20;3.27;;;11.70;99.90;;;;;;4772809;30;20303;-85
2023/04/15 08:17:29;;;;;;;7.17;4.07;;;11.70;99.90;;;;;;4773652;30;20052;-85
2023/04/15 08:19:54;;;;;;;7.23;3.47;;;11.70;99.90;;;;;;4758035;30;20400;-85
2023/04/15 08:22:20;;;;;;;8.23;4.00;;;11.80;99.90;;;;;;4758015;30;20496;-85
2023/04/15 08:24:46;;;;;;;6.83;3.53;;;11.80;99.90;;;;;;4772640;30;20081;-85
2023/04/15 08:27:12;;;;;;;8.57;3.93;;;11.80;99.90;;;;;;4773031;30;20047;-86
2023/04/15 08:29:38;;;;;;;6.20;3.43;;;11.80;99.90;;;;;;4758014;30;20495;-86
2023/04/15 08:32:06;;;;;;;7.97;3.00;;;11.70;99.90;;;;;;4757881;30;20292;-85
2023/04/15 08:34:32;;;;;;;6.90;2.90;;;11.70;99.90;;;;;;4788788;30;20482;-85
2023/04/15 08:36:58;;;;;;;5.83;3.10;;;11.60;99.90;;;;;;4772596;30;20303;-86
2023/04/15 08:39:23;;;;;;;6.77;2.80;;;11.50;99.90;;;;;;4757905;30;20308;-86
2023/04/15 08:42:02;;;;;;;9.27;3.13;;;11.40;99.90;;;;;;4757900;30;20051;-86
2023/04/15 08:44:30;;;;;;;6.10;2.90;;;11.40;99.90;;;;;;4772579;30;20051;-84
2023/04/15 08:47:00;;;;;;;5.70;3.10;;;11.20;99.90;;;;;;4758035;30;20309;-85
2023/04/15 08:49:27;;;;;;;8.70;4.00;;;11.20;99.90;;;;;;4757773;30;20317;-85
2023/04/15 08:51:55;;;;;;;6.33;3.60;;;11.10;99.90;;;;;;4772329;30;20394;-86
2023/04/15 08:54:22;;;;;;;7.80;3.67;;;11.00;99.90;;;;;;4773164;30;20354;-86
2023/04/15 08:56:48;;;;;;;6.80;4.00;;;10.90;99.90;;;;;;4743022;30;20353;-86
2023/04/15 08:59:15;;;;;;;5.80;3.30;;;10.70;99.90;;;;;;4773139;30;20301;-85
2023/04/15 09:01:41;;;;;;;6.83;3.57;;;10.70;99.90;;;;;;4772507;30;20066;-87
2023/04/15 09:04:07;;;;;;;6.43;3.50;;;10.60;99.90;;;;;;4772385;30;20383;-85
2023/04/15 09:06:33;;;;;;;7.30;3.33;;;10.60;99.90;;;;;;4757441;30;20715;-85
2023/04/15 09:08:59;;;;;;;6.43;3.20;;;10.70;99.90;;;;;;4772287;30;20400;-86
2023/04/15 09:11:25;;;;;;;6.23;2.63;;;10.70;99.90;;;;;;4757319;30;20335;-85
2023/04/15 09:13:51;;;;;;;6.27;2.93;;;10.70;99.90;;;;;;4772269;30;20336;-85
2023/04/15 09:16:17;;;;;;;5.30;2.73;;;10.70;99.90;;;;;;4772531;30;20389;-85
2023/04/15 09:18:43;;;;;;;6.27;3.00;;;10.70;99.90;;;;;;4772204;30;20051;-86
2023/04/15 09:21:12;;;;;;;6.03;3.07;;;10.70;99.90;;;;;;4771676;30;20513;-85
2023/04/15 09:23:39;;;;;;;6.90;2.97;;;10.60;99.90;;;;;;4772989;30;20051;-85
2023/04/15 09:26:05;;;;;;;8.40;4.20;;;10.60;99.90;;;;;;4772928;30;20299;-85
2023/04/15 09:28:32;;;;;;;7.27;3.27;;;10.40;99.90;;;;;;4757501;30;20313;-85
2023/04/15 09:30:59;;;;;;;7.63;3.47;;;10.40;99.90;;;;;;4788677;30;20425;-85
2023/04/15 09:33:26;;;;;;;11.63;3.53;;;10.30;99.90;;;;;;4771944;30;20639;-84
2023/04/15 09:36:01;;;;;;;8.40;5.20;;;10.30;99.90;;;;;;4772068;30;20296;-86
2023/04/15 09:38:27;;;;;;;4.38;2.15;;;10.40;99.90;;;;;;4772959;30;20297;-85
2023/04/15 09:40:53;;;;;;;4.60;2.10;;;10.40;99.90;;;;;;4771922;30;20055;-85
2023/04/15 09:43:19;;;;;;;4.97;1.80;;;10.50;99.90;;;;;;4742530;30;20308;-86
2023/04/15 09:45:50;;;;;;;5.67;2.23;;;10.70;99.90;;;;;;4757477;30;20052;-86
2023/04/15 09:48:20;;;;;;;4.43;1.83;;;10.90;99.90;;;;;;4789110;30;20639;-85
2023/04/15 09:50:48;;;;;;;6.13;2.50;;;11.00;99.90;;;;;;4747201;30;20308;-86
2023/04/15 09:53:22;;;;;;;6.30;1.63;;;11.10;99.90;;;;;;4759890;30;20308;-86
2023/04/15 09:55:53;;;;;;;3.80;1.53;;;11.10;99.90;;;;;;4761258;30;20305;-86
2023/04/15 09:58:23;;;;;;;6.13;1.73;;;11.00;99.90;;;;;;4791171;30;20289;-85
2023/04/15 10:00:50;;;;;;;7.87;1.53;;;11.10;99.90;;;;;;4774875;30;20650;-86
2023/04/15 10:03:22;;;;;;;4.43;1.70;;;11.20;99.90;;;;;;4775248;30;20308;-85
2023/04/15 10:05:50;;;;;;;5.77;1.40;;;11.30;99.90;;;;;;4760238;30;20401;-84
2023/04/15 10:08:22;;;;;;;4.50;1.20;;;11.50;99.90;;;;;;4775167;30;20320;-85
2023/04/15 10:10:48;;;;;;;3.50;1.20;;;11.50;99.90;;;;;;4775012;30;20300;-86
2023/04/15 10:13:23;;;;;;;2.67;1.10;;;11.40;99.90;;;;;;4760277;30;20478;-85
2023/04/15 10:16:06;;;;;;;3.13;1.33;;;11.50;99.90;;;;;;4760939;30;20316;-85
2023/04/15 10:18:35;;;;;;;2.93;1.17;;;11.50;99.90;;;;;;4775164;30;20108;-84
2023/04/15 10:21:01;;;;;;;4.33;1.30;;;11.60;99.90;;;;;;4774713;30;20820;-84
2023/04/15 10:23:27;;;;;;;2.83;1.00;;;11.70;99.90;;;;;;4760060;30;20293;-84
2023/04/15 10:25:53;;;;;;;4.53;1.40;;;11.80;99.90;;;;;;4759798;30;20696;-85
2023/04/15 10:28:21;;;;;;;5.67;1.60;;;11.80;99.90;;;;;;4759816;30;20166;-85
2023/04/15 10:30:48;;;;;;;5.80;1.50;;;11.70;99.90;;;;;;4774647;30;20790;-84
2023/04/15 10:33:22;;;;;;;2.87;1.40;;;11.70;99.90;;;;;;4775427;30;20679;-84
2023/04/15 10:35:50;;;;;;;4.73;1.40;;;11.60;99.90;;;;;;4790495;30;20289;-83
2023/04/15 10:38:35;;;;;;;3.10;1.20;;;11.60;99.90;;;;;;4774547;30;20305;-84
2023/04/15 10:41:19;;;;;;;4.03;1.33;;;11.60;99.90;;;;;;4774718;30;20301;-84
2023/04/15 10:43:59;;;;;;;4.60;1.50;;;11.50;99.90;;;;;;4760433;30;20073;-84
2023/04/15 10:46:44;;;;;;;3.50;1.63;;;11.40;99.90;;;;;;4760476;30;20311;-83
2023/04/15 10:49:14;;;;;;;2.75;1.10;;;11.30;99.90;;;;;;4759978;30;20313;-84
2023/04/15 10:51:42;;;;;;;4.03;1.10;;;11.20;99.90;;;;;;4773605;30;20055;-83
2023/04/15 10:54:13;;;;;;;3.03;1.33;;;11.20;99.90;;;;;;4790938;30;20600;-83
2023/04/15 10:56:44;;;;;;;4.50;1.30;;;11.10;99.90;;;;;;4775111;30;20309;-83
2023/04/15 10:59:10;;;;;;;4.37;1.43;;;11.10;99.90;;;;;;4759478;30;20297;-84
2023/04/15 11:01:59;;;;;;;3.87;1.40;;;11.00;99.90;;;;;;4759169;30;20365;-83
2023/04/15 11:04:50;;;;;;;5.00;1.87;;;11.00;99.90;;;;;;4790070;30;20297;-84
2023/04/15 11:07:32;;;;;;;4.73;1.40;;;11.00;99.90;;;;;;4759222;30;20297;-84
2023/04/15 11:09:58;;;;;;;3.23;1.40;;;11.00;99.90;;;;;;4773937;30;20300;-84
2023/04/15 11:12:35;;;;;;;6.10;1.40;;;11.10;99.90;;;;;;4774068;30;20301;-84
2023/04/15 11:15:31;;;;;;;6.13;1.43;;;11.10;99.90;;;;;;4774449;30;20059;-85
2023/04/15 11:18:23;;;;;;;3.63;1.45;;;11.10;99.90;;;;;;4773816;30;20301;-85
2023/04/15 11:20:55;;;;;;;4.17;1.50;;;11.10;99.90;;;;;;4773563;30;20055;-84
2023/04/15 11:23:43;;;;;;;3.33;1.50;;;11.10;99.90;;;;;;4773796;30;20350;-84
2023/04/15 11:26:10;;;;;;;6.47;1.43;;;11.00;99.90;;;;;;4773531;30;20299;-84
2023/04/15 11:28:42;;;;;;;4.03;1.17;;;11.00;99.90;;;;;;4789182;29;20821;-84
2023/04/15 11:31:10;;;;;;;4.87;1.50;;;11.00;99.90;;;;;;4773765;30;20770;-85
2023/04/15 11:33:43;;;;;;;5.23;1.53;;;10.90;99.90;;;;;;4774401;30;20296;-84
2023/04/15 11:36:09;;;;;;;4.50;1.50;;;10.90;99.90;;;;;;4774303;30;20310;-83
2023/04/15 11:38:36;;;;;;;5.27;1.57;;;10.90;99.90;;;;;;4758444;30;20305;-84
2023/04/15 11:41:02;;;;;;;4.40;1.83;;;10.90;99.90;;;;;;4758898;30;20662;-84
2023/04/15 11:43:31;;;;;;;4.23;1.67;;;10.90;99.90;;;;;;4773884;30;20293;-83
2023/04/15 11:45:59;;;;;;;5.23;1.93;;;11.00;99.90;;;;;;4789267;29;20184;-84
2023/04/15 11:48:31;;;;;;;6.77;2.10;;;10.90;99.90;;;;;;4758451;30;20320;-83
2023/04/15 11:50:59;;;;;;;8.30;2.00;;;10.80;99.90;;;;;;4758856;30;20320;-84
2023/04/15 11:53:41;;;;;;;7.03;2.60;;;10.70;99.90;;;;;;4758539;30;20301;-84
2023/04/15 11:56:17;;;;;;;7.30;2.50;;;10.60;99.90;;;;;;4758472;30;20770;-84
2023/04/15 11:58:45;;;;;;;9.07;2.10;;;10.50;99.90;;;;;;4789151;30;20288;-83
2023/04/15 12:01:11;;;;;;;6.97;2.33;;;10.50;99.90;;;;;;4773180;30;20297;-83
2023/04/15 12:03:38;;;;;;;7.17;1.90;;;10.50;99.90;;;;;;4772831;30;20304;-84
2023/04/15 12:06:21;;;;;;;7.27;1.90;;;10.50;99.90;;;;;;4758475;30;20309;-84
2023/04/15 12:09:08;;;;;;;8.07;2.23;;;10.60;99.90;;;;;;4758210;30;20328;-84
2023/04/15 12:11:46;;;;;;;4.97;1.20;;;10.70;99.90;;;;;;4779566;29;20407;-84
2023/04/15 12:14:14;;;;;;;4.27;1.40;;;10.70;99.90;;;;;;4772894;30;20400;-84
2023/04/15 12:16:43;;;;;;;4.20;1.20;;;10.80;99.90;;;;;;4758964;30;20316;-84
2023/04/15 12:19:13;;;;;;;4.93;1.50;;;10.80;99.90;;;;;;4773048;30;20297;-85
2023/04/15 12:21:43;;;;;;;6.00;1.50;;;10.80;99.90;;;;;;4773032;30;20826;-84
2023/04/15 12:24:11;;;;;;;6.23;2.03;;;10.70;99.90;;;;;;4772830;30;20293;-84
2023/04/15 12:26:49;;;;;;;7.27;1.60;;;10.70;99.90;;;;;;4758023;30;20307;-84
2023/04/15 12:29:16;;;;;;;9.50;2.40;;;10.60;99.90;;;;;;4757577;30;20316;-84
2023/04/15 12:31:52;;;;;;;10.03;1.70;;;10.50;99.90;;;;;;4772997;30;20379;-84
2023/04/15 12:34:32;;;;;;;5.90;1.87;;;10.50;99.90;;;;;;4772680;30;20303;-84
2023/04/15 12:37:01;;;;;;;8.43;1.40;;;10.30;99.90;;;;;;4773258;30;20809;-84
2023/04/15 12:39:30;;;;;;;10.67;1.97;;;10.30;99.90;;;;;;4788139;30;20800;-84
2023/04/15 12:41:55;;;;;;;6.27;1.67;;;10.50;99.90;;;;;;4772639;30;20297;-85
2023/04/15 12:44:22;;;;;;;9.87;2.03;;;10.50;99.90;;;;;;4758053;30;20825;-84
2023/04/15 12:46:52;;;;;;;4.97;1.80;;;10.60;99.90;;;;;;4772252;30;20059;-83